createdAt,value
2023-01-11T00:00:51.895Z,1014.27
2023-01-11T00:03:07.518Z,1014.25
2023-01-11T00:05:26.439Z,1014.23
2023-01-11T00:07:41.184Z,1014.19
2023-01-11T00:09:59.252Z,1014.15
2023-01-11T00:12:14.861Z,1014.09
2023-01-11T00:14:29.460Z,1014.07
2023-01-11T00:16:44.045Z,1014.06
2023-01-11T00:19:02.093Z,1013.98
2023-01-11T00:21:17.747Z,1013.98
2023-01-11T00:23:35.820Z,1013.90
2023-01-11T00:25:51.417Z,1013.90
2023-01-11T00:28:09.539Z,1013.88
2023-01-11T00:30:27.573Z,1013.78
2023-01-11T00:32:43.156Z,1013.80
2023-01-11T00:34:56.784Z,1013.73
2023-01-11T00:37:14.876Z,1013.65
2023-01-11T00:39:33.006Z,1013.64
2023-01-11T00:41:47.550Z,1013.62
2023-01-11T00:44:05.626Z,1013.53
2023-01-11T00:46:23.779Z,1013.54
2023-01-11T00:48:41.799Z,1013.41
2023-01-11T00:50:56.397Z,1013.45
2023-01-11T00:53:14.484Z,1013.48
2023-01-11T00:55:30.144Z,1013.49
2023-01-11T00:57:48.445Z,1013.42
2023-01-11T01:00:04.048Z,1013.37
2023-01-11T01:02:18.647Z,1013.37
2023-01-11T01:04:34.216Z,1013.39
2023-01-11T01:06:52.295Z,1013.38
2023-01-11T01:09:10.378Z,1013.45
2023-01-11T01:11:28.854Z,1013.52
2023-01-11T01:13:46.885Z,1013.50
2023-01-11T01:16:05.049Z,1013.47
2023-01-11T01:18:23.059Z,1013.44
2023-01-11T01:20:41.148Z,1013.43
2023-01-11T01:22:59.223Z,1013.43
2023-01-11T01:25:14.817Z,1013.44
2023-01-11T01:27:28.732Z,1013.43
2023-01-11T01:29:41.497Z,1013.47
2023-01-11T01:31:57.093Z,1013.43
2023-01-11T01:34:15.162Z,1013.44
2023-01-11T01:36:35.808Z,1013.45
2023-01-11T01:38:53.867Z,1013.43
2023-01-11T01:41:19.461Z,1013.33
2023-01-11T01:43:33.957Z,1013.25
2023-01-11T01:45:52.043Z,1013.22
2023-01-11T01:48:11.214Z,1013.14
2023-01-11T01:50:26.826Z,1013.13
2023-01-11T01:52:42.294Z,1013.10
2023-01-11T01:54:57.903Z,1013.03
2023-01-11T01:57:13.518Z,1013.02
2023-01-11T01:59:29.136Z,1012.96
2023-01-11T02:01:42.731Z,1012.96
2023-01-11T02:04:00.787Z,1012.93
2023-01-11T02:06:18.870Z,1012.90
2023-01-11T02:08:32.497Z,1012.80
2023-01-11T02:10:50.662Z,1012.75
2023-01-11T02:13:05.170Z,1012.64
2023-01-11T02:15:20.750Z,1012.63
2023-01-11T02:17:34.406Z,1012.41
2023-01-11T02:19:50.309Z,1012.31
2023-01-11T02:22:05.920Z,1012.31
2023-01-11T02:24:22.506Z,1012.26
2023-01-11T02:26:38.127Z,1012.27
2023-01-11T02:28:53.679Z,1012.27
2023-01-11T02:31:09.266Z,1012.33
2023-01-11T02:33:24.865Z,1012.24
2023-01-11T02:35:42.942Z,1012.21
2023-01-11T02:37:58.541Z,1012.20
2023-01-11T02:40:16.662Z,1012.17
2023-01-11T02:42:34.691Z,1012.20
2023-01-11T02:44:52.775Z,1012.18
2023-01-11T02:47:10.873Z,1012.20
2023-01-11T02:49:23.949Z,1012.15
2023-01-11T02:51:39.535Z,1012.06
2023-01-11T02:53:57.614Z,1012.04
2023-01-11T02:56:13.255Z,1011.97
2023-01-11T02:58:26.377Z,1011.90
2023-01-11T03:00:44.437Z,1011.94
2023-01-11T03:03:02.565Z,1011.87
2023-01-11T03:05:20.619Z,1011.74
2023-01-11T03:07:38.741Z,1011.68
2023-01-11T03:09:54.300Z,1011.68
2023-01-11T03:12:12.392Z,1011.70
2023-01-11T03:14:30.471Z,1011.69
2023-01-11T03:16:46.131Z,1011.62
2023-01-11T03:19:01.762Z,1011.63
2023-01-11T03:21:17.408Z,1011.54
2023-01-11T03:23:35.530Z,1011.50
2023-01-11T03:25:53.586Z,1011.58
2023-01-11T03:28:11.639Z,1011.44
2023-01-11T03:30:27.275Z,1011.38
2023-01-11T03:32:45.319Z,1011.49
2023-01-11T03:35:01.897Z,1011.40
2023-01-11T03:37:17.520Z,1011.40
2023-01-11T03:39:33.101Z,1011.45
2023-01-11T03:41:46.733Z,1011.46
2023-01-11T03:44:02.322Z,1011.36
2023-01-11T03:46:20.416Z,1011.26
2023-01-11T03:48:38.498Z,1011.24
2023-01-11T03:50:53.047Z,1011.24
2023-01-11T03:53:06.170Z,1011.22
2023-01-11T03:55:24.273Z,1011.22
2023-01-11T03:57:42.626Z,1011.22
2023-01-11T03:59:58.283Z,1011.21
2023-01-11T04:02:13.799Z,1011.16
2023-01-11T04:04:28.450Z,1011.14
2023-01-11T04:06:43.985Z,1011.01
2023-01-11T04:09:02.051Z,1011.00
2023-01-11T04:11:17.665Z,1010.92
2023-01-11T04:13:33.752Z,1010.83
2023-01-11T04:15:51.322Z,1010.92
2023-01-11T04:18:06.900Z,1010.78
2023-01-11T04:20:24.988Z,1010.79
2023-01-11T04:22:39.545Z,1010.77
2023-01-11T04:24:53.165Z,1010.79
2023-01-11T04:27:07.806Z,1010.83
2023-01-11T04:29:23.394Z,1010.76
2023-01-11T04:31:39.028Z,1010.75
2023-01-11T04:33:54.501Z,1010.71
2023-01-11T04:36:10.089Z,1010.70
2023-01-11T04:38:23.719Z,1010.77
2023-01-11T04:40:38.271Z,1010.79
2023-01-11T04:42:53.873Z,1010.74
2023-01-11T04:45:09.457Z,1010.69
2023-01-11T04:47:23.067Z,1010.64
2023-01-11T04:49:36.650Z,1010.65
2023-01-11T04:51:50.244Z,1010.67
2023-01-11T04:54:05.814Z,1010.69
2023-01-11T04:56:21.410Z,1010.64
2023-01-11T04:58:38.194Z,1010.71
2023-01-11T05:00:50.598Z,1010.73
2023-01-11T05:03:08.639Z,1010.68
2023-01-11T05:05:26.734Z,1010.60
2023-01-11T05:07:41.352Z,1010.51
2023-01-11T05:09:57.729Z,1010.44
2023-01-11T05:12:10.511Z,1010.51
2023-01-11T05:14:26.066Z,1010.46
2023-01-11T05:16:39.753Z,1010.46
2023-01-11T05:18:57.793Z,1010.44
2023-01-11T05:21:13.352Z,1010.36
2023-01-11T05:23:28.933Z,1010.38
2023-01-11T05:25:44.503Z,1010.39
2023-01-11T05:28:00.095Z,1010.28
2023-01-11T05:30:15.665Z,1010.29
2023-01-11T05:32:31.241Z,1010.32
2023-01-11T05:34:51.864Z,1010.30
2023-01-11T05:37:05.437Z,1010.28
2023-01-11T05:39:21.025Z,1010.28
2023-01-11T05:41:34.104Z,1010.25
2023-01-11T05:43:49.684Z,1010.27
2023-01-11T05:46:05.302Z,1010.23
2023-01-11T05:48:20.879Z,1010.18
2023-01-11T05:50:36.465Z,1010.16
2023-01-11T05:52:52.105Z,1010.06
2023-01-11T05:55:05.704Z,1010.06
2023-01-11T05:57:22.308Z,1010.05
2023-01-11T05:59:37.881Z,1010.09
2023-01-11T06:01:55.987Z,1010.07
2023-01-11T06:04:09.029Z,1010.00
2023-01-11T06:06:27.241Z,1009.99
2023-01-11T06:08:45.267Z,1009.94
2023-01-11T06:10:59.983Z,1009.93
2023-01-11T06:13:15.372Z,1009.88
2023-01-11T06:15:33.451Z,1009.82
2023-01-11T06:17:49.203Z,1009.80
2023-01-11T06:20:02.786Z,1009.76
2023-01-11T06:22:16.360Z,1009.78
2023-01-11T06:24:29.944Z,1009.76
2023-01-11T06:26:42.039Z,1009.75
2023-01-11T06:28:57.687Z,1009.76
2023-01-11T06:31:16.106Z,1009.79
2023-01-11T06:33:28.589Z,1009.76
2023-01-11T06:35:45.207Z,1009.82
2023-01-11T06:39:35.395Z,1009.79
2023-01-11T06:41:49.635Z,1009.74
2023-01-11T06:44:04.163Z,1009.74
2023-01-11T06:46:19.823Z,1009.79
2023-01-11T06:48:38.880Z,1009.85
2023-01-11T06:50:55.425Z,1009.88
2023-01-11T06:53:21.435Z,1009.92
2023-01-11T06:55:37.745Z,1009.97
2023-01-11T06:57:52.596Z,1009.97
2023-01-11T08:11:41.523Z,1009.90
2023-01-11T08:13:58.218Z,1009.89
2023-01-11T08:17:06.932Z,1009.87
2023-01-11T08:19:25.957Z,1009.85
2023-01-11T08:21:44.080Z,1009.80
2023-01-11T08:24:00.660Z,1009.79
2023-01-11T08:26:18.767Z,1009.77
2023-01-11T08:28:35.490Z,1009.78
2023-01-11T08:31:01.936Z,1009.87
2023-01-11T08:33:25.771Z,1009.88
2023-01-11T08:39:06.754Z,1009.86
2023-01-11T08:44:34.015Z,1009.78
2023-01-11T08:46:52.455Z,1009.76
2023-01-11T08:49:06.732Z,1009.76
2023-01-11T08:51:23.371Z,1009.73
2023-01-11T08:53:41.458Z,1009.63
2023-01-11T08:55:58.086Z,1009.64
2023-01-11T08:58:16.211Z,1009.62
2023-01-11T09:00:34.285Z,1009.65
2023-01-11T09:02:53.417Z,1009.68
2023-01-11T09:05:13.954Z,1009.66
2023-01-11T09:07:34.577Z,1009.64
2023-01-11T09:09:54.302Z,1009.71
2023-01-11T09:12:13.820Z,1009.72
2023-01-11T09:14:34.484Z,1009.77
2023-01-11T09:16:52.557Z,1009.75
2023-01-11T09:19:13.163Z,1009.78
2023-01-11T09:21:32.292Z,1009.77
2023-01-11T09:23:51.994Z,1009.82
2023-01-11T09:26:12.542Z,1009.83
2023-01-11T09:28:32.516Z,1009.77
2023-01-11T09:30:48.335Z,1009.77
2023-01-11T09:33:08.939Z,1009.74
2023-01-11T09:35:25.834Z,1009.71
2023-01-11T09:37:46.438Z,1009.66
2023-01-11T09:40:04.534Z,1009.67
2023-01-11T09:42:21.109Z,1009.66
2023-01-11T09:44:37.709Z,1009.58
2023-01-11T09:46:54.263Z,1009.58
2023-01-11T09:49:10.831Z,1009.56
2023-01-11T09:51:41.213Z,1009.53
2023-01-11T09:53:58.464Z,1009.49
2023-01-11T09:56:14.988Z,1009.47
2023-01-11T09:58:49.968Z,1009.46
2023-01-11T10:01:06.846Z,1009.47
2023-01-11T10:03:25.908Z,1009.39
2023-01-11T10:05:42.521Z,1009.39
2023-01-11T10:18:22.022Z,1009.25
2023-01-11T10:18:23.838Z,1009.31
2023-01-11T10:18:28.490Z,1009.28
2023-01-11T10:18:30.325Z,1009.24
2023-01-11T10:18:30.328Z,1009.24
2023-01-11T10:19:41.393Z,1009.20
2023-01-11T10:21:22.015Z,1009.20
2023-01-11T10:23:38.614Z,1009.23
2023-01-11T10:25:59.209Z,1009.20
2023-01-11T10:28:15.823Z,1009.20
2023-01-11T10:30:33.917Z,1009.16
2023-01-11T10:33:53.315Z,1009.16
2023-01-11T10:36:15.023Z,1009.09
2023-01-11T10:38:34.093Z,1009.11
2023-01-11T10:40:51.542Z,1009.04
2023-01-11T10:43:12.180Z,1009.06
2023-01-11T10:45:33.305Z,1009.00
2023-01-11T10:47:53.504Z,1009.01
2023-01-11T10:50:10.089Z,1009.03
2023-01-11T10:52:26.641Z,1008.95
2023-01-11T10:54:46.141Z,1008.93
2023-01-11T10:57:03.017Z,1008.91
2023-01-11T10:59:19.475Z,1008.87
2023-01-11T11:01:36.004Z,1008.78
2023-01-11T11:03:51.644Z,1008.78
2023-01-11T11:06:09.737Z,1008.74
2023-01-11T11:08:40.702Z,1008.71
2023-01-11T11:10:59.010Z,1008.64
2023-01-11T11:11:58.336Z,1008.62
2023-01-11T11:14:19.420Z,1008.54
2023-01-11T11:16:37.550Z,1008.57
2023-01-11T11:18:55.542Z,1008.53
2023-01-11T11:45:33.161Z,1008.39
2023-01-11T11:47:31.312Z,1008.35
2023-01-11T11:49:47.844Z,1008.33
2023-01-11T11:52:08.521Z,1008.31
2023-01-11T11:54:25.491Z,1008.31
2023-01-11T11:56:45.763Z,1008.23
2023-01-11T11:59:03.729Z,1008.26
2023-01-11T12:02:15.437Z,1008.22
2023-01-11T12:04:33.344Z,1008.17
2023-01-11T12:06:52.523Z,1008.15
2023-01-11T12:09:10.099Z,1008.14
2023-01-11T12:12:39.575Z,1008.09
2023-01-11T12:15:00.173Z,1008.06
2023-01-11T12:17:18.312Z,1008.03
2023-01-11T12:19:32.945Z,1007.98
2023-01-11T12:21:51.163Z,1007.99
2023-01-11T12:24:09.330Z,1007.97
2023-01-11T12:26:26.869Z,1007.94
2023-01-11T12:28:47.574Z,1007.96
2023-01-11T12:31:08.236Z,1007.96
2023-01-11T12:33:24.188Z,1008.02
2023-01-11T12:35:44.970Z,1007.95
2023-01-11T12:38:00.493Z,1007.95
2023-01-11T12:40:18.615Z,1007.96
2023-01-11T12:42:34.197Z,1007.97
2023-01-11T12:44:54.774Z,1007.97
2023-01-11T12:47:12.934Z,1007.94
2023-01-11T12:49:30.975Z,1007.88
2023-01-11T12:51:51.542Z,1007.85
2023-01-11T12:54:09.226Z,1007.84
2023-01-11T12:56:27.169Z,1007.83
2023-01-11T12:58:43.898Z,1007.85
2023-01-11T13:01:04.443Z,1007.84
2023-01-11T13:03:24.819Z,1007.81
2023-01-11T13:05:45.719Z,1007.86
2023-01-11T13:08:06.193Z,1007.84
2023-01-11T13:10:26.826Z,1007.84
2023-01-11T13:12:44.722Z,1007.87
2023-01-11T13:15:04.000Z,1007.82
2023-01-11T13:17:22.072Z,1007.84
2023-01-11T13:19:42.889Z,1007.91
2023-01-11T13:22:03.368Z,1007.88
2023-01-11T13:24:19.982Z,1007.90
2023-01-11T13:26:38.446Z,1007.86
2023-01-11T13:28:57.620Z,1007.82
2023-01-11T13:31:15.605Z,1007.83
2023-01-11T13:33:35.862Z,1007.84
2023-01-11T13:36:52.693Z,1007.85
2023-01-11T13:39:09.776Z,1007.90
2023-01-11T13:41:31.642Z,1007.87
2023-01-11T13:44:47.785Z,1007.89
2023-01-11T13:47:05.810Z,1007.90
2023-01-11T13:49:26.490Z,1007.95
2023-01-11T13:51:45.768Z,1007.97
2023-01-11T13:54:04.227Z,1007.95
2023-01-11T13:56:19.274Z,1007.95
2023-01-11T13:58:37.031Z,1007.95
2023-01-11T14:00:52.781Z,1007.94
2023-01-11T14:03:10.881Z,1007.97
2023-01-11T14:05:26.455Z,1007.96
2023-01-11T14:07:44.532Z,1007.94
2023-01-11T14:10:42.301Z,1007.98
2023-01-11T14:13:02.955Z,1007.97
2023-01-11T14:15:19.399Z,1008.05
2023-01-11T14:17:36.057Z,1008.06
2023-01-11T14:19:52.550Z,1008.04
2023-01-11T14:22:10.706Z,1008.10
2023-01-11T14:24:27.316Z,1008.15
2023-01-11T14:26:48.017Z,1008.11
2023-01-11T14:29:05.889Z,1008.16
2023-01-11T14:31:27.624Z,1008.15
2023-01-11T14:33:42.059Z,1008.21
2023-01-11T14:36:13.994Z,1008.22
2023-01-11T14:38:32.762Z,1008.23
2023-01-11T14:40:50.922Z,1008.18
2023-01-11T14:43:11.563Z,1008.23
2023-01-11T14:45:32.140Z,1008.24
2023-01-11T14:47:47.680Z,1008.28
2023-01-11T14:50:02.271Z,1008.28
2023-01-11T14:52:39.138Z,1008.33
2023-01-11T14:53:27.937Z,1008.34
2023-01-11T14:55:47.196Z,1008.39
2023-01-11T14:58:50.661Z,1008.41
2023-01-11T15:01:11.822Z,1008.42
2023-01-11T15:03:31.800Z,1008.36
2023-01-11T15:05:50.332Z,1008.37
2023-01-11T15:08:08.251Z,1008.36
2023-01-11T15:10:24.924Z,1008.41
2023-01-11T15:12:43.025Z,1008.45
2023-01-11T15:15:03.633Z,1008.49
2023-01-11T15:17:20.311Z,1008.50
2023-01-11T15:19:38.265Z,1008.57
2023-01-11T15:21:58.986Z,1008.61
2023-01-11T15:24:16.986Z,1008.66
2023-01-11T15:26:37.675Z,1008.64
2023-01-11T15:28:58.157Z,1008.66
2023-01-11T15:31:16.403Z,1008.70
2023-01-11T15:33:36.889Z,1008.69
2023-01-11T15:35:54.975Z,1008.69
2023-01-11T15:38:13.045Z,1008.68
2023-01-11T15:40:31.174Z,1008.69
2023-01-11T15:42:49.271Z,1008.74
2023-01-11T15:45:08.229Z,1008.76
2023-01-11T15:47:24.936Z,1008.77
2023-01-11T15:49:43.015Z,1008.78
2023-01-11T15:52:03.587Z,1008.82
2023-01-11T15:54:21.728Z,1008.89
2023-01-11T15:56:36.328Z,1008.93
2023-01-11T15:58:52.844Z,1008.96
2023-01-11T16:01:10.440Z,1008.96
2023-01-11T16:03:31.016Z,1009.00
2023-01-11T16:05:49.133Z,1009.01
2023-01-11T16:08:05.656Z,1009.05
2023-01-11T16:10:23.767Z,1009.17
2023-01-11T16:12:44.701Z,1009.15
2023-01-11T16:15:02.803Z,1009.17
2023-01-11T16:17:19.447Z,1009.25
2023-01-11T16:19:39.989Z,1009.32
2023-01-11T16:21:56.481Z,1009.27
2023-01-11T16:24:12.409Z,1009.23
2023-01-11T16:26:30.356Z,1009.27
2023-01-11T16:28:45.894Z,1009.42
2023-01-11T16:31:04.291Z,1009.48
2023-01-11T16:33:22.242Z,1009.39
2023-01-11T16:35:40.341Z,1009.45
2023-01-11T16:37:53.539Z,1009.49
2023-01-11T16:40:09.142Z,1009.50
2023-01-11T16:42:24.713Z,1009.54
2023-01-11T16:44:40.296Z,1009.54
2023-01-11T16:46:56.845Z,1009.58
2023-01-11T16:49:12.445Z,1009.63
2023-01-11T16:51:28.042Z,1009.63
2023-01-11T16:53:43.752Z,1009.62
2023-01-11T16:56:04.725Z,1009.72
2023-01-11T16:58:25.288Z,1009.67
2023-01-11T17:00:43.275Z,1009.72
2023-01-11T17:02:58.514Z,1009.74
2023-01-11T17:05:16.863Z,1009.75
2023-01-11T17:07:38.820Z,1009.74
2023-01-11T17:09:56.960Z,1009.87
2023-01-11T17:12:14.895Z,1009.88
2023-01-11T17:14:35.501Z,1009.86
2023-01-11T17:16:53.688Z,1009.94
2023-01-11T17:19:09.470Z,1010.00
2023-01-11T17:21:27.642Z,1009.98
2023-01-11T17:23:43.259Z,1009.97
2023-01-11T17:26:01.336Z,1009.98
2023-01-11T17:28:14.885Z,1010.08
2023-01-11T17:30:30.488Z,1010.17
2023-01-11T17:32:49.386Z,1010.07
2023-01-11T17:35:06.650Z,1010.05
2023-01-11T17:37:24.696Z,1010.05
2023-01-11T17:39:42.838Z,1010.03
2023-01-11T17:42:01.147Z,1010.05
2023-01-11T17:44:21.476Z,1010.11
2023-01-11T17:46:39.567Z,1010.12
2023-01-11T17:48:54.170Z,1010.14
2023-01-11T17:51:12.243Z,1010.16
2023-01-11T17:53:30.289Z,1010.24
2023-01-11T17:55:43.956Z,1010.30
2023-01-11T17:58:02.176Z,1010.28
2023-01-11T18:00:16.595Z,1010.30
2023-01-11T18:02:33.198Z,1010.30
2023-01-11T18:04:51.427Z,1010.35
2023-01-11T18:07:07.198Z,1010.39
2023-01-11T18:09:24.918Z,1010.37
2023-01-11T18:11:40.683Z,1010.40
2023-01-11T18:13:59.059Z,1010.40
2023-01-11T18:16:19.236Z,1010.50
2023-01-11T18:18:32.526Z,1010.48
2023-01-11T18:20:52.890Z,1010.55
2023-01-11T18:23:11.224Z,1010.63
2023-01-11T18:25:27.977Z,1010.69
2023-01-11T18:27:43.584Z,1010.70
2023-01-11T18:30:04.149Z,1010.70
2023-01-11T18:32:22.146Z,1010.74
2023-01-11T18:34:43.117Z,1010.77
2023-01-11T21:14:07.270Z,1011.72
2023-01-11T21:16:25.459Z,1011.64
2023-01-11T21:18:54.370Z,1011.58
2023-01-11T21:21:14.829Z,1011.67
2023-01-11T21:23:32.939Z,1011.80
2023-01-11T21:25:53.795Z,1011.78
2023-01-11T21:28:10.217Z,1011.81
2023-01-11T21:30:31.336Z,1011.82
2023-01-11T21:33:25.315Z,1011.82
2023-01-11T21:35:58.598Z,1011.80
2023-01-11T21:38:16.605Z,1011.82
2023-01-11T21:40:33.257Z,1011.88
2023-01-11T21:42:51.721Z,1011.88
2023-01-11T21:45:09.754Z,1011.92
2023-01-11T21:47:26.364Z,1011.92
2023-01-11T21:49:43.291Z,1011.91
2023-01-11T21:51:59.938Z,1011.98
2023-01-11T21:54:16.522Z,1011.89
2023-01-11T21:56:37.456Z,1011.89
2023-01-11T21:58:55.467Z,1011.86
2023-01-11T22:01:20.826Z,1011.79
2023-01-11T22:03:37.399Z,1011.71
2023-01-11T22:06:01.381Z,1011.66
2023-01-11T22:08:17.949Z,1011.77
2023-01-11T22:11:06.628Z,1011.78
2023-01-11T22:13:25.361Z,1011.83
2023-01-11T22:15:44.724Z,1011.84
2023-01-11T22:18:01.304Z,1011.79
2023-01-11T22:20:22.906Z,1011.81
2023-01-11T22:22:39.954Z,1011.82
2023-01-11T22:25:00.684Z,1011.78
2023-01-11T22:27:17.316Z,1011.83
2023-01-11T22:29:33.813Z,1011.77
2023-01-11T22:32:01.726Z,1011.83
2023-01-11T22:37:33.596Z,1011.81
2023-01-11T22:39:54.454Z,1011.79
2023-01-11T22:42:20.949Z,1011.77
2023-01-11T22:44:43.527Z,1011.71
2023-01-11T22:47:02.350Z,1011.66
2023-01-11T22:49:34.357Z,1011.70
2023-01-11T22:52:03.340Z,1011.77
2023-01-11T22:54:21.439Z,1011.82
2023-01-11T22:56:39.739Z,1011.83
2023-01-11T22:59:59.505Z,1011.87
2023-01-11T23:02:24.362Z,1011.85
2023-01-11T23:05:07.199Z,1011.84
2023-01-11T23:07:26.814Z,1011.85
2023-01-11T23:09:43.636Z,1011.82
2023-01-11T23:12:04.305Z,1011.83
2023-01-11T23:14:22.263Z,1011.81
2023-01-11T23:16:42.877Z,1011.83
2023-01-11T23:19:00.579Z,1011.83
2023-01-11T23:23:47.465Z,1011.86
2023-01-11T23:26:15.010Z,1011.80
2023-01-11T23:32:42.533Z,1011.73
2023-01-11T23:35:05.783Z,1011.61
2023-01-11T23:37:23.885Z,1011.53
2023-01-11T23:40:04.655Z,1011.50
2023-01-11T23:43:11.360Z,1011.56
2023-01-11T23:46:15.045Z,1011.52
2023-01-11T23:48:35.047Z,1011.50
2023-01-11T23:50:58.855Z,1011.50
2023-01-11T23:54:42.554Z,1011.54
2023-01-11T23:59:02.093Z,1011.64
